General Aviation Weather

Text Reports

Enter one or more of the following location identifiers separated by a space:

Zip Code, Four-Character ICAO or Three-Character IATA airport codes.

METAR - Aviation Routine Weather Report
KSMS - Sumter, South Carolina
Updated at 5:55 PM GMT on August 04, 2015 (1:55 PM EDT):
METAR KSMS 041755Z AUTO 04006KT 10SM 35/23 A2996 RMK AO2 LTG DSNT SE AND S
TAF - Terminal Area Forecast
KSMS - Sumter, South Carolina
Updated at 5:55 PM GMT on August 04, 2015 (1:55 PM EDT):
No TAF is currently available for this location.
Decoded:
No decoded TAF is available.
PIREP - Pilot Weather Report
KSMS - Sumter, South Carolina
Updated at 5:55 PM GMT on August 04, 2015 (1:55 PM EDT):
No PIREP is currently available for this location.
AIRMET - Airmens Meteorological Information
KSMS - Sumter, South Carolina
Updated at 5:55 PM GMT on August 04, 2015 (1:55 PM EDT):
No AIRMET is currently available for this location.
SIGMET - Significant Meteorological Information
KSMS - Sumter, South Carolina
Updated at 5:55 PM GMT on August 04, 2015 (1:55 PM EDT):
No SIGMET is currently available for this location.
NOTAM - Notice to Airmen
KSMS - Sumter, South Carolina
Updated at 5:55 PM GMT on August 04, 2015 (1:55 PM EDT):
No NOTAM is currently available for this location.
Forecast Area
KSMS - Sumter, South Carolina
Updated at 5:55 PM GMT on August 04, 2015 (1:55 PM EDT):
No NOTAM is currently available for this location.
Aviation Weather Maps